sensor_id;sensor_type;location;lat;lon;timestamp;P1;durP1;ratioP1;P2;durP2;ratioP2
4323;SDS011;2175;51.018;6.994;2023-04-05T00:01:26;15.67;;;8.00;;
4323;SDS011;2175;51.018;6.994;2023-04-05T00:03:52;15.73;;;8.65;;
4323;SDS011;2175;51.018;6.994;2023-04-05T00:06:19;15.10;;;8.80;;
4323;SDS011;2175;51.018;6.994;2023-04-05T00:08:53;12.90;;;9.15;;
4323;SDS011;2175;51.018;6.994;2023-04-05T00:11:32;12.73;;;8.00;;
4323;SDS011;2175;51.018;6.994;2023-04-05T00:13:58;21.23;;;9.18;;
4323;SDS011;2175;51.018;6.994;2023-04-05T00:16:25;13.40;;;8.05;;
4323;SDS011;2175;51.018;6.994;2023-04-05T00:18:52;15.30;;;9.05;;
4323;SDS011;2175;51.018;6.994;2023-04-05T00:21:19;16.60;;;8.02;;
4323;SDS011;2175;51.018;6.994;2023-04-05T00:23:48;19.63;;;7.90;;
4323;SDS011;2175;51.018;6.994;2023-04-05T00:26:15;13.45;;;8.68;;
4323;SDS011;2175;51.018;6.994;2023-04-05T00:28:41;14.57;;;7.95;;
4323;SDS011;2175;51.018;6.994;2023-04-05T00:31:07;15.80;;;8.80;;
4323;SDS011;2175;51.018;6.994;2023-04-05T00:33:33;16.50;;;9.07;;
4323;SDS011;2175;51.018;6.994;2023-04-05T00:36:11;15.33;;;8.90;;
4323;SDS011;2175;51.018;6.994;2023-04-05T00:38:39;14.45;;;8.75;;
4323;SDS011;2175;51.018;6.994;2023-04-05T00:41:05;17.60;;;9.00;;
4323;SDS011;2175;51.018;6.994;2023-04-05T00:43:32;14.75;;;8.73;;
4323;SDS011;2175;51.018;6.994;2023-04-05T00:45:57;17.60;;;8.70;;
4323;SDS011;2175;51.018;6.994;2023-04-05T00:48:24;18.50;;;9.40;;
4323;SDS011;2175;51.018;6.994;2023-04-05T00:50:50;16.98;;;9.38;;
4323;SDS011;2175;51.018;6.994;2023-04-05T00:53:17;14.65;;;8.35;;
4323;SDS011;2175;51.018;6.994;2023-04-05T00:55:47;15.73;;;8.52;;
4323;SDS011;2175;51.018;6.994;2023-04-05T00:58:13;15.60;;;7.93;;
4323;SDS011;2175;51.018;6.994;2023-04-05T01:03:54;14.82;;;8.07;;
4323;SDS011;2175;51.018;6.994;2023-04-05T01:06:39;13.90;;;7.80;;
4323;SDS011;2175;51.018;6.994;2023-04-05T01:09:13;14.38;;;8.35;;
4323;SDS011;2175;51.018;6.994;2023-04-05T01:11:44;14.02;;;7.53;;
4323;SDS011;2175;51.018;6.994;2023-04-05T01:14:12;11.63;;;7.10;;
4323;SDS011;2175;51.018;6.994;2023-04-05T01:16:38;16.20;;;7.50;;
4323;SDS011;2175;51.018;6.994;2023-04-05T01:19:04;16.90;;;8.30;;
4323;SDS011;2175;51.018;6.994;2023-04-05T01:24:02;12.68;;;7.13;;
4323;SDS011;2175;51.018;6.994;2023-04-05T01:26:56;12.88;;;6.80;;
4323;SDS011;2175;51.018;6.994;2023-04-05T01:29:46;11.52;;;7.35;;
4323;SDS011;2175;51.018;6.994;2023-04-05T01:35:15;15.70;;;7.97;;
4323;SDS011;2175;51.018;6.994;2023-04-05T01:37:42;14.63;;;7.60;;
4323;SDS011;2175;51.018;6.994;2023-04-05T01:40:11;14.03;;;7.87;;
4323;SDS011;2175;51.018;6.994;2023-04-05T01:42:38;14.10;;;8.77;;
4323;SDS011;2175;51.018;6.994;2023-04-05T01:45:03;16.33;;;7.63;;
4323;SDS011;2175;51.018;6.994;2023-04-05T01:47:29;17.42;;;9.20;;
4323;SDS011;2175;51.018;6.994;2023-04-05T01:49:55;10.53;;;7.07;;
4323;SDS011;2175;51.018;6.994;2023-04-05T01:52:21;14.77;;;7.50;;
4323;SDS011;2175;51.018;6.994;2023-04-05T01:54:47;13.55;;;7.32;;
4323;SDS011;2175;51.018;6.994;2023-04-05T01:57:13;17.33;;;8.20;;
4323;SDS011;2175;51.018;6.994;2023-04-05T01:59:38;15.20;;;8.43;;
4323;SDS011;2175;51.018;6.994;2023-04-05T02:02:04;18.60;;;7.90;;
4323;SDS011;2175;51.018;6.994;2023-04-05T02:04:30;11.57;;;7.47;;
4323;SDS011;2175;51.018;6.994;2023-04-05T02:06:55;13.47;;;7.50;;
4323;SDS011;2175;51.018;6.994;2023-04-05T02:09:21;13.73;;;7.83;;
4323;SDS011;2175;51.018;6.994;2023-04-05T02:11:47;16.80;;;8.40;;
4323;SDS011;2175;51.018;6.994;2023-04-05T02:14:13;13.80;;;8.07;;
4323;SDS011;2175;51.018;6.994;2023-04-05T02:16:39;12.65;;;7.88;;
4323;SDS011;2175;51.018;6.994;2023-04-05T02:19:06;12.47;;;7.47;;
4323;SDS011;2175;51.018;6.994;2023-04-05T02:21:32;14.50;;;7.30;;
4323;SDS011;2175;51.018;6.994;2023-04-05T02:23:58;12.63;;;8.10;;
4323;SDS011;2175;51.018;6.994;2023-04-05T02:26:24;12.17;;;7.43;;
4323;SDS011;2175;51.018;6.994;2023-04-05T02:28:51;17.27;;;8.17;;
4323;SDS011;2175;51.018;6.994;2023-04-05T02:31:17;18.77;;;8.50;;
4323;SDS011;2175;51.018;6.994;2023-04-05T02:33:42;11.70;;;7.50;;
4323;SDS011;2175;51.018;6.994;2023-04-05T02:36:09;16.20;;;7.70;;
4323;SDS011;2175;51.018;6.994;2023-04-05T02:38:37;14.93;;;7.55;;
4323;SDS011;2175;51.018;6.994;2023-04-05T02:41:03;14.30;;;8.20;;
4323;SDS011;2175;51.018;6.994;2023-04-05T02:43:32;19.90;;;8.57;;
4323;SDS011;2175;51.018;6.994;2023-04-05T02:45:59;11.90;;;8.07;;
4323;SDS011;2175;51.018;6.994;2023-04-05T02:48:24;12.87;;;7.30;;
4323;SDS011;2175;51.018;6.994;2023-04-05T02:50:50;14.50;;;7.53;;
4323;SDS011;2175;51.018;6.994;2023-04-05T02:53:16;13.40;;;8.00;;
4323;SDS011;2175;51.018;6.994;2023-04-05T02:55:42;12.85;;;6.95;;
4323;SDS011;2175;51.018;6.994;2023-04-05T02:58:15;17.27;;;8.27;;
4323;SDS011;2175;51.018;6.994;2023-04-05T03:00:44;11.60;;;7.53;;
4323;SDS011;2175;51.018;6.994;2023-04-05T03:03:14;11.52;;;7.72;;
4323;SDS011;2175;51.018;6.994;2023-04-05T03:05:44;12.48;;;7.00;;
4323;SDS011;2175;51.018;6.994;2023-04-05T03:08:11;14.88;;;7.20;;
4323;SDS011;2175;51.018;6.994;2023-04-05T03:10:46;16.85;;;7.43;;
4323;SDS011;2175;51.018;6.994;2023-04-05T03:13:13;14.30;;;6.72;;
4323;SDS011;2175;51.018;6.994;2023-04-05T03:15:40;12.77;;;6.90;;
4323;SDS011;2175;51.018;6.994;2023-04-05T03:18:06;19.75;;;7.53;;
4323;SDS011;2175;51.018;6.994;2023-04-05T03:20:33;12.73;;;6.57;;
4323;SDS011;2175;51.018;6.994;2023-04-05T03:23:08;13.98;;;6.72;;
4323;SDS011;2175;51.018;6.994;2023-04-05T03:25:34;17.35;;;7.10;;
4323;SDS011;2175;51.018;6.994;2023-04-05T03:28:03;13.93;;;7.20;;
4323;SDS011;2175;51.018;6.994;2023-04-05T03:30:30;20.20;;;7.70;;
4323;SDS011;2175;51.018;6.994;2023-04-05T03:33:02;19.10;;;7.15;;
4323;SDS011;2175;51.018;6.994;2023-04-05T03:35:28;14.93;;;7.15;;
4323;SDS011;2175;51.018;6.994;2023-04-05T03:37:55;16.85;;;6.68;;
4323;SDS011;2175;51.018;6.994;2023-04-05T03:40:24;20.42;;;7.63;;
4323;SDS011;2175;51.018;6.994;2023-04-05T03:42:49;16.98;;;7.60;;
4323;SDS011;2175;51.018;6.994;2023-04-05T03:45:15;12.70;;;7.77;;
4323;SDS011;2175;51.018;6.994;2023-04-05T03:47:42;19.52;;;7.90;;
4323;SDS011;2175;51.018;6.994;2023-04-05T03:50:07;19.40;;;7.23;;
4323;SDS011;2175;51.018;6.994;2023-04-05T03:52:33;18.47;;;7.00;;
4323;SDS011;2175;51.018;6.994;2023-04-05T03:55:00;15.05;;;7.43;;
4323;SDS011;2175;51.018;6.994;2023-04-05T03:57:25;15.00;;;7.80;;
4323;SDS011;2175;51.018;6.994;2023-04-05T03:59:55;16.90;;;6.72;;
4323;SDS011;2175;51.018;6.994;2023-04-05T04:02:20;16.20;;;7.20;;
4323;SDS011;2175;51.018;6.994;2023-04-05T04:04:46;16.33;;;6.50;;
4323;SDS011;2175;51.018;6.994;2023-04-05T04:07:12;12.27;;;6.80;;
4323;SDS011;2175;51.018;6.994;2023-04-05T04:09:38;10.32;;;6.78;;
4323;SDS011;2175;51.018;6.994;2023-04-05T04:12:04;11.53;;;6.20;;
4323;SDS011;2175;51.018;6.994;2023-04-05T04:14:30;12.93;;;6.10;;
4323;SDS011;2175;51.018;6.994;2023-04-05T04:16:56;12.73;;;6.75;;
4323;SDS011;2175;51.018;6.994;2023-04-05T04:19:22;13.90;;;6.38;;
4323;SDS011;2175;51.018;6.994;2023-04-05T04:21:48;11.10;;;6.43;;
4323;SDS011;2175;51.018;6.994;2023-04-05T04:24:17;8.77;;;5.80;;
4323;SDS011;2175;51.018;6.994;2023-04-05T04:26:44;11.80;;;6.40;;
4323;SDS011;2175;51.018;6.994;2023-04-05T04:29:10;12.15;;;6.43;;
4323;SDS011;2175;51.018;6.994;2023-04-05T04:31:42;9.73;;;5.80;;
4323;SDS011;2175;51.018;6.994;2023-04-05T04:34:13;9.75;;;5.90;;
4323;SDS011;2175;51.018;6.994;2023-04-05T04:36:42;15.20;;;6.63;;
4323;SDS011;2175;51.018;6.994;2023-04-05T04:39:10;11.65;;;5.80;;
4323;SDS011;2175;51.018;6.994;2023-04-05T04:41:37;9.80;;;6.43;;
4323;SDS011;2175;51.018;6.994;2023-04-05T04:44:08;12.52;;;6.25;;
4323;SDS011;2175;51.018;6.994;2023-04-05T04:46:38;9.88;;;6.57;;
4323;SDS011;2175;51.018;6.994;2023-04-05T04:49:07;11.50;;;6.43;;
4323;SDS011;2175;51.018;6.994;2023-04-05T04:51:37;10.55;;;6.43;;
4323;SDS011;2175;51.018;6.994;2023-04-05T04:56:35;11.88;;;6.65;;
4323;SDS011;2175;51.018;6.994;2023-04-05T04:59:00;10.10;;;6.40;;
4323;SDS011;2175;51.018;6.994;2023-04-05T05:01:26;9.70;;;6.40;;
4323;SDS011;2175;51.018;6.994;2023-04-05T05:03:52;13.30;;;7.07;;
4323;SDS011;2175;51.018;6.994;2023-04-05T05:06:19;10.60;;;6.20;;
4323;SDS011;2175;51.018;6.994;2023-04-05T05:08:46;11.98;;;6.65;;
4323;SDS011;2175;51.018;6.994;2023-04-05T05:11:12;14.45;;;6.80;;
4323;SDS011;2175;51.018;6.994;2023-04-05T05:13:38;10.57;;;6.50;;
4323;SDS011;2175;51.018;6.994;2023-04-05T05:16:04;11.82;;;6.45;;
4323;SDS011;2175;51.018;6.994;2023-04-05T05:18:33;10.07;;;6.72;;
4323;SDS011;2175;51.018;6.994;2023-04-05T05:21:00;14.03;;;7.50;;
4323;SDS011;2175;51.018;6.994;2023-04-05T05:23:26;12.57;;;6.93;;
4323;SDS011;2175;51.018;6.994;2023-04-05T05:25:56;9.63;;;6.27;;
4323;SDS011;2175;51.018;6.994;2023-04-05T05:28:25;11.70;;;6.40;;
4323;SDS011;2175;51.018;6.994;2023-04-05T05:30:51;13.10;;;6.70;;
4323;SDS011;2175;51.018;6.994;2023-04-05T05:33:18;15.77;;;6.83;;
4323;SDS011;2175;51.018;6.994;2023-04-05T05:35:48;16.80;;;6.85;;
4323;SDS011;2175;51.018;6.994;2023-04-05T05:38:15;14.25;;;6.97;;
4323;SDS011;2175;51.018;6.994;2023-04-05T05:40:43;11.60;;;6.80;;
4323;SDS011;2175;51.018;6.994;2023-04-05T05:43:09;12.77;;;6.43;;
4323;SDS011;2175;51.018;6.994;2023-04-05T05:45:35;10.83;;;6.77;;
4323;SDS011;2175;51.018;6.994;2023-04-05T05:48:01;10.52;;;6.43;;
4323;SDS011;2175;51.018;6.994;2023-04-05T05:50:26;12.27;;;7.03;;
4323;SDS011;2175;51.018;6.994;2023-04-05T05:52:57;11.00;;;6.40;;
4323;SDS011;2175;51.018;6.994;2023-04-05T05:55:23;11.18;;;6.85;;
4323;SDS011;2175;51.018;6.994;2023-04-05T05:57:49;11.67;;;7.10;;
4323;SDS011;2175;51.018;6.994;2023-04-05T06:00:17;12.52;;;6.35;;
4323;SDS011;2175;51.018;6.994;2023-04-05T06:02:43;11.90;;;6.32;;
4323;SDS011;2175;51.018;6.994;2023-04-05T06:05:09;11.47;;;6.67;;
4323;SDS011;2175;51.018;6.994;2023-04-05T06:07:35;12.07;;;6.73;;
4323;SDS011;2175;51.018;6.994;2023-04-05T06:10:02;13.60;;;7.60;;
4323;SDS011;2175;51.018;6.994;2023-04-05T06:12:28;13.18;;;7.45;;
4323;SDS011;2175;51.018;6.994;2023-04-05T06:14:54;12.70;;;7.37;;
4323;SDS011;2175;51.018;6.994;2023-04-05T06:17:20;11.83;;;6.37;;
4323;SDS011;2175;51.018;6.994;2023-04-05T06:19:45;9.97;;;6.50;;
4323;SDS011;2175;51.018;6.994;2023-04-05T06:22:11;10.87;;;8.00;;
4323;SDS011;2175;51.018;6.994;2023-04-05T06:24:36;17.70;;;7.90;;
4323;SDS011;2175;51.018;6.994;2023-04-05T06:27:02;16.40;;;8.10;;
4323;SDS011;2175;51.018;6.994;2023-04-05T06:29:28;15.73;;;7.90;;
4323;SDS011;2175;51.018;6.994;2023-04-05T06:31:55;15.13;;;7.78;;
4323;SDS011;2175;51.018;6.994;2023-04-05T06:34:21;13.83;;;7.73;;
4323;SDS011;2175;51.018;6.994;2023-04-05T06:36:46;12.33;;;7.70;;
4323;SDS011;2175;51.018;6.994;2023-04-05T06:39:12;10.17;;;7.27;;
4323;SDS011;2175;51.018;6.994;2023-04-05T06:41:38;12.55;;;8.23;;
4323;SDS011;2175;51.018;6.994;2023-04-05T06:44:04;13.95;;;7.25;;
4323;SDS011;2175;51.018;6.994;2023-04-05T06:46:30;10.93;;;7.93;;
4323;SDS011;2175;51.018;6.994;2023-04-05T06:48:57;13.43;;;7.63;;
4323;SDS011;2175;51.018;6.994;2023-04-05T06:51:23;12.48;;;7.70;;
4323;SDS011;2175;51.018;6.994;2023-04-05T06:53:50;15.02;;;7.78;;
4323;SDS011;2175;51.018;6.994;2023-04-05T06:56:16;10.77;;;7.87;;
4323;SDS011;2175;51.018;6.994;2023-04-05T06:58:42;12.97;;;7.73;;
4323;SDS011;2175;51.018;6.994;2023-04-05T07:01:08;13.25;;;6.80;;
4323;SDS011;2175;51.018;6.994;2023-04-05T07:03:34;11.70;;;7.10;;
4323;SDS011;2175;51.018;6.994;2023-04-05T07:06:00;13.25;;;7.30;;
4323;SDS011;2175;51.018;6.994;2023-04-05T07:08:27;14.25;;;6.97;;
4323;SDS011;2175;51.018;6.994;2023-04-05T07:10:55;8.35;;;6.85;;
4323;SDS011;2175;51.018;6.994;2023-04-05T07:13:22;8.67;;;6.07;;
4323;SDS011;2175;51.018;6.994;2023-04-05T07:15:49;8.70;;;6.10;;
4323;SDS011;2175;51.018;6.994;2023-04-05T07:18:18;13.80;;;6.40;;
4323;SDS011;2175;51.018;6.994;2023-04-05T07:20:45;9.43;;;5.93;;
4323;SDS011;2175;51.018;6.994;2023-04-05T07:23:13;8.93;;;5.97;;
4323;SDS011;2175;51.018;6.994;2023-04-05T07:26:01;12.37;;;6.00;;
4323;SDS011;2175;51.018;6.994;2023-04-05T07:28:38;14.25;;;6.07;;
4323;SDS011;2175;51.018;6.994;2023-04-05T07:31:04;10.03;;;5.90;;
4323;SDS011;2175;51.018;6.994;2023-04-05T07:33:31;10.23;;;5.60;;
4323;SDS011;2175;51.018;6.994;2023-04-05T07:35:57;8.23;;;5.63;;
4323;SDS011;2175;51.018;6.994;2023-04-05T07:38:24;8.43;;;5.63;;
4323;SDS011;2175;51.018;6.994;2023-04-05T07:40:51;14.23;;;5.63;;
4323;SDS011;2175;51.018;6.994;2023-04-05T07:43:17;12.40;;;5.80;;
4323;SDS011;2175;51.018;6.994;2023-04-05T07:45:43;8.20;;;5.40;;
4323;SDS011;2175;51.018;6.994;2023-04-05T07:48:09;15.30;;;6.30;;
4323;SDS011;2175;51.018;6.994;2023-04-05T07:50:35;13.50;;;5.53;;
4323;SDS011;2175;51.018;6.994;2023-04-05T07:53:03;9.50;;;4.60;;
4323;SDS011;2175;51.018;6.994;2023-04-05T07:55:29;9.33;;;5.20;;
4323;SDS011;2175;51.018;6.994;2023-04-05T07:57:55;9.83;;;4.90;;
4323;SDS011;2175;51.018;6.994;2023-04-05T08:00:22;9.67;;;5.20;;
4323;SDS011;2175;51.018;6.994;2023-04-05T08:02:48;10.83;;;6.10;;
4323;SDS011;2175;51.018;6.994;2023-04-05T08:05:14;9.80;;;5.07;;
4323;SDS011;2175;51.018;6.994;2023-04-05T08:07:44;8.97;;;5.77;;
4323;SDS011;2175;51.018;6.994;2023-04-05T08:10:10;10.60;;;5.03;;
4323;SDS011;2175;51.018;6.994;2023-04-05T08:12:36;9.47;;;4.90;;
4323;SDS011;2175;51.018;6.994;2023-04-05T08:15:02;9.33;;;5.10;;
4323;SDS011;2175;51.018;6.994;2023-04-05T08:17:27;8.10;;;4.80;;
4323;SDS011;2175;51.018;6.994;2023-04-05T08:19:54;6.93;;;4.43;;
4323;SDS011;2175;51.018;6.994;2023-04-05T08:22:20;7.10;;;4.30;;
4323;SDS011;2175;51.018;6.994;2023-04-05T08:24:45;8.70;;;4.57;;
4323;SDS011;2175;51.018;6.994;2023-04-05T08:27:11;6.10;;;3.77;;
4323;SDS011;2175;51.018;6.994;2023-04-05T08:29:37;7.37;;;4.70;;
4323;SDS011;2175;51.018;6.994;2023-04-05T08:32:02;6.23;;;4.30;;
4323;SDS011;2175;51.018;6.994;2023-04-05T08:34:28;6.67;;;4.60;;
4323;SDS011;2175;51.018;6.994;2023-04-05T08:36:57;8.40;;;4.73;;
4323;SDS011;2175;51.018;6.994;2023-04-05T08:39:24;11.23;;;5.17;;
4323;SDS011;2175;51.018;6.994;2023-04-05T08:41:54;8.53;;;4.50;;
4323;SDS011;2175;51.018;6.994;2023-04-05T08:44:38;6.83;;;4.97;;
4323;SDS011;2175;51.018;6.994;2023-04-05T08:47:07;7.40;;;4.47;;
4323;SDS011;2175;51.018;6.994;2023-04-05T08:49:41;8.33;;;4.60;;
4323;SDS011;2175;51.018;6.994;2023-04-05T08:52:08;8.73;;;4.67;;
4323;SDS011;2175;51.018;6.994;2023-04-05T08:54:41;7.13;;;4.77;;
4323;SDS011;2175;51.018;6.994;2023-04-05T08:57:07;5.03;;;4.40;;
4323;SDS011;2175;51.018;6.994;2023-04-05T08:59:35;8.93;;;5.00;;
4323;SDS011;2175;51.018;6.994;2023-04-05T09:02:05;6.30;;;4.40;;
4323;SDS011;2175;51.018;6.994;2023-04-05T09:04:45;12.50;;;4.80;;
4323;SDS011;2175;51.018;6.994;2023-04-05T09:07:14;7.83;;;5.03;;
4323;SDS011;2175;51.018;6.994;2023-04-05T09:09:43;7.13;;;4.70;;
4323;SDS011;2175;51.018;6.994;2023-04-05T09:12:12;7.20;;;4.63;;
4323;SDS011;2175;51.018;6.994;2023-04-05T09:14:38;8.33;;;4.80;;
4323;SDS011;2175;51.018;6.994;2023-04-05T09:17:04;7.80;;;5.00;;
4323;SDS011;2175;51.018;6.994;2023-04-05T09:19:30;6.97;;;4.83;;
4323;SDS011;2175;51.018;6.994;2023-04-05T09:21:59;8.57;;;4.77;;
4323;SDS011;2175;51.018;6.994;2023-04-05T09:24:29;9.90;;;5.43;;
4323;SDS011;2175;51.018;6.994;2023-04-05T09:27:03;10.40;;;4.90;;
4323;SDS011;2175;51.018;6.994;2023-04-05T09:32:06;8.00;;;5.33;;
4323;SDS011;2175;51.018;6.994;2023-04-05T09:34:33;8.37;;;5.30;;
4323;SDS011;2175;51.018;6.994;2023-04-05T09:37:03;5.53;;;4.57;;
4323;SDS011;2175;51.018;6.994;2023-04-05T09:39:38;8.10;;;5.27;;
4323;SDS011;2175;51.018;6.994;2023-04-05T09:42:04;8.70;;;5.33;;
4323;SDS011;2175;51.018;6.994;2023-04-05T09:47:19;7.60;;;5.27;;
4323;SDS011;2175;51.018;6.994;2023-04-05T09:49:45;11.60;;;5.93;;
4323;SDS011;2175;51.018;6.994;2023-04-05T09:52:18;9.60;;;5.70;;
4323;SDS011;2175;51.018;6.994;2023-04-05T09:54:49;6.17;;;4.73;;
4323;SDS011;2175;51.018;6.994;2023-04-05T09:57:20;15.20;;;6.07;;
4323;SDS011;2175;51.018;6.994;2023-04-05T09:59:47;6.70;;;5.70;;
4323;SDS011;2175;51.018;6.994;2023-04-05T10:02:12;10.83;;;5.47;;
4323;SDS011;2175;51.018;6.994;2023-04-05T10:04:43;10.57;;;6.13;;
4323;SDS011;2175;51.018;6.994;2023-04-05T10:07:10;10.60;;;6.07;;
4323;SDS011;2175;51.018;6.994;2023-04-05T10:09:40;9.30;;;5.30;;
4323;SDS011;2175;51.018;6.994;2023-04-05T10:12:07;8.60;;;5.00;;
4323;SDS011;2175;51.018;6.994;2023-04-05T10:14:36;8.50;;;4.90;;
4323;SDS011;2175;51.018;6.994;2023-04-05T10:27:53;11.43;;;5.50;;
4323;SDS011;2175;51.018;6.994;2023-04-05T10:30:28;14.80;;;6.37;;
4323;SDS011;2175;51.018;6.994;2023-04-05T10:38:43;12.20;;;6.60;;
4323;SDS011;2175;51.018;6.994;2023-04-05T10:41:11;7.93;;;6.03;;
4323;SDS011;2175;51.018;6.994;2023-04-05T10:43:40;10.40;;;6.67;;
4323;SDS011;2175;51.018;6.994;2023-04-05T10:46:07;9.80;;;5.97;;
4323;SDS011;2175;51.018;6.994;2023-04-05T10:48:53;11.80;;;6.83;;
4323;SDS011;2175;51.018;6.994;2023-04-05T10:51:30;8.70;;;6.23;;
4323;SDS011;2175;51.018;6.994;2023-04-05T10:53:59;7.87;;;6.10;;
4323;SDS011;2175;51.018;6.994;2023-04-05T10:56:25;8.50;;;5.80;;
4323;SDS011;2175;51.018;6.994;2023-04-05T10:58:51;10.60;;;6.70;;
4323;SDS011;2175;51.018;6.994;2023-04-05T11:01:18;10.63;;;6.60;;
4323;SDS011;2175;51.018;6.994;2023-04-05T11:03:51;8.97;;;5.37;;
4323;SDS011;2175;51.018;6.994;2023-04-05T11:06:20;11.93;;;7.17;;
4323;SDS011;2175;51.018;6.994;2023-04-05T11:08:46;13.00;;;7.40;;
4323;SDS011;2175;51.018;6.994;2023-04-05T11:11:15;10.30;;;6.20;;
4323;SDS011;2175;51.018;6.994;2023-04-05T11:13:49;11.43;;;6.20;;
4323;SDS011;2175;51.018;6.994;2023-04-05T11:16:20;18.07;;;7.20;;
4323;SDS011;2175;51.018;6.994;2023-04-05T11:18:48;9.80;;;7.07;;
4323;SDS011;2175;51.018;6.994;2023-04-05T11:21:22;10.57;;;6.80;;
4323;SDS011;2175;51.018;6.994;2023-04-05T11:29:08;7.33;;;5.87;;
4323;SDS011;2175;51.018;6.994;2023-04-05T11:31:34;10.47;;;6.00;;
4323;SDS011;2175;51.018;6.994;2023-04-05T11:34:03;11.90;;;5.70;;
4323;SDS011;2175;51.018;6.994;2023-04-05T11:36:36;19.93;;;6.87;;
4323;SDS011;2175;51.018;6.994;2023-04-05T11:41:52;10.33;;;6.53;;
4323;SDS011;2175;51.018;6.994;2023-04-05T11:44:19;10.60;;;6.37;;
4323;SDS011;2175;51.018;6.994;2023-04-05T11:46:47;9.23;;;6.50;;
4323;SDS011;2175;51.018;6.994;2023-04-05T11:49:13;8.17;;;5.43;;
4323;SDS011;2175;51.018;6.994;2023-04-05T11:51:42;12.37;;;6.53;;
4323;SDS011;2175;51.018;6.994;2023-04-05T11:54:08;9.77;;;6.73;;
4323;SDS011;2175;51.018;6.994;2023-04-05T11:56:34;10.70;;;6.20;;
4323;SDS011;2175;51.018;6.994;2023-04-05T11:59:00;10.40;;;7.07;;
4323;SDS011;2175;51.018;6.994;2023-04-05T12:01:26;10.80;;;6.57;;
4323;SDS011;2175;51.018;6.994;2023-04-05T12:03:55;9.10;;;6.30;;
4323;SDS011;2175;51.018;6.994;2023-04-05T12:06:22;9.27;;;6.50;;
4323;SDS011;2175;51.018;6.994;2023-04-05T12:08:48;9.43;;;5.73;;
4323;SDS011;2175;51.018;6.994;2023-04-05T12:11:15;8.00;;;5.80;;
4323;SDS011;2175;51.018;6.994;2023-04-05T12:13:47;9.77;;;6.47;;
4323;SDS011;2175;51.018;6.994;2023-04-05T12:16:12;10.67;;;6.53;;
4323;SDS011;2175;51.018;6.994;2023-04-05T12:18:38;7.83;;;5.73;;
4323;SDS011;2175;51.018;6.994;2023-04-05T12:21:06;9.77;;;6.70;;
4323;SDS011;2175;51.018;6.994;2023-04-05T12:23:33;10.37;;;7.20;;
4323;SDS011;2175;51.018;6.994;2023-04-05T12:25:59;9.13;;;6.70;;
4323;SDS011;2175;51.018;6.994;2023-04-05T12:28:35;7.67;;;6.03;;
4323;SDS011;2175;51.018;6.994;2023-04-05T12:31:53;9.53;;;6.50;;
4323;SDS011;2175;51.018;6.994;2023-04-05T12:34:14;9.63;;;6.90;;
4323;SDS011;2175;51.018;6.994;2023-04-05T12:36:49;7.47;;;5.70;;
4323;SDS011;2175;51.018;6.994;2023-04-05T12:39:16;10.40;;;6.53;;
4323;SDS011;2175;51.018;6.994;2023-04-05T12:41:42;11.33;;;6.60;;
4323;SDS011;2175;51.018;6.994;2023-04-05T12:44:13;12.07;;;7.20;;
4323;SDS011;2175;51.018;6.994;2023-04-05T12:46:43;9.20;;;6.37;;
4323;SDS011;2175;51.018;6.994;2023-04-05T12:49:11;9.13;;;6.93;;
4323;SDS011;2175;51.018;6.994;2023-04-05T12:51:44;14.00;;;7.90;;
4323;SDS011;2175;51.018;6.994;2023-04-05T12:54:14;9.83;;;6.60;;
4323;SDS011;2175;51.018;6.994;2023-04-05T12:56:45;17.40;;;7.13;;
4323;SDS011;2175;51.018;6.994;2023-04-05T12:59:13;11.07;;;6.97;;
4323;SDS011;2175;51.018;6.994;2023-04-05T13:01:39;12.43;;;6.70;;
4323;SDS011;2175;51.018;6.994;2023-04-05T13:04:05;9.00;;;5.73;;
4323;SDS011;2175;51.018;6.994;2023-04-05T13:06:30;6.93;;;5.90;;
4323;SDS011;2175;51.018;6.994;2023-04-05T13:08:56;8.77;;;6.50;;
4323;SDS011;2175;51.018;6.994;2023-04-05T13:11:23;8.53;;;5.73;;
4323;SDS011;2175;51.018;6.994;2023-04-05T13:13:49;10.17;;;6.67;;
4323;SDS011;2175;51.018;6.994;2023-04-05T13:16:16;9.27;;;7.17;;
4323;SDS011;2175;51.018;6.994;2023-04-05T13:18:41;10.90;;;7.00;;
4323;SDS011;2175;51.018;6.994;2023-04-05T13:21:07;11.10;;;6.70;;
4323;SDS011;2175;51.018;6.994;2023-04-05T13:23:34;14.77;;;6.77;;
4323;SDS011;2175;51.018;6.994;2023-04-05T13:26:00;12.13;;;7.33;;
4323;SDS011;2175;51.018;6.994;2023-04-05T13:28:26;11.63;;;6.87;;
4323;SDS011;2175;51.018;6.994;2023-04-05T13:30:52;10.40;;;6.50;;
4323;SDS011;2175;51.018;6.994;2023-04-05T13:33:21;12.77;;;7.30;;
4323;SDS011;2175;51.018;6.994;2023-04-05T13:35:46;13.03;;;7.10;;
4323;SDS011;2175;51.018;6.994;2023-04-05T13:38:12;13.27;;;7.40;;
4323;SDS011;2175;51.018;6.994;2023-04-05T13:40:38;13.70;;;7.53;;
4323;SDS011;2175;51.018;6.994;2023-04-05T13:43:04;9.90;;;6.63;;
4323;SDS011;2175;51.018;6.994;2023-04-05T13:45:31;17.37;;;7.60;;
4323;SDS011;2175;51.018;6.994;2023-04-05T13:47:57;11.67;;;8.07;;
4323;SDS011;2175;51.018;6.994;2023-04-05T13:50:23;11.20;;;7.00;;
4323;SDS011;2175;51.018;6.994;2023-04-05T13:52:49;9.80;;;7.60;;
4323;SDS011;2175;51.018;6.994;2023-04-05T13:55:16;15.23;;;7.13;;
4323;SDS011;2175;51.018;6.994;2023-04-05T13:57:42;15.70;;;7.50;;
4323;SDS011;2175;51.018;6.994;2023-04-05T14:00:08;9.87;;;7.67;;
4323;SDS011;2175;51.018;6.994;2023-04-05T14:02:34;8.53;;;6.47;;
4323;SDS011;2175;51.018;6.994;2023-04-05T14:05:00;10.20;;;7.00;;
4323;SDS011;2175;51.018;6.994;2023-04-05T14:07:26;8.80;;;6.53;;
4323;SDS011;2175;51.018;6.994;2023-04-05T14:09:52;10.53;;;7.70;;
4323;SDS011;2175;51.018;6.994;2023-04-05T14:12:17;14.37;;;7.30;;
4323;SDS011;2175;51.018;6.994;2023-04-05T14:14:43;11.63;;;7.83;;
4323;SDS011;2175;51.018;6.994;2023-04-05T14:17:09;11.80;;;8.53;;
4323;SDS011;2175;51.018;6.994;2023-04-05T14:19:36;10.90;;;8.30;;
4323;SDS011;2175;51.018;6.994;2023-04-05T14:22:05;11.93;;;8.30;;
4323;SDS011;2175;51.018;6.994;2023-04-05T14:24:31;14.00;;;7.90;;
4323;SDS011;2175;51.018;6.994;2023-04-05T14:26:57;9.93;;;7.40;;
4323;SDS011;2175;51.018;6.994;2023-04-05T14:29:22;14.00;;;9.13;;
4323;SDS011;2175;51.018;6.994;2023-04-05T14:31:48;12.80;;;8.10;;
4323;SDS011;2175;51.018;6.994;2023-04-05T14:34:14;12.47;;;8.47;;
4323;SDS011;2175;51.018;6.994;2023-04-05T14:36:40;9.47;;;7.30;;
4323;SDS011;2175;51.018;6.994;2023-04-05T14:39:06;13.73;;;7.70;;
4323;SDS011;2175;51.018;6.994;2023-04-05T14:41:31;10.03;;;7.20;;
4323;SDS011;2175;51.018;6.994;2023-04-05T14:43:59;10.60;;;7.80;;
4323;SDS011;2175;51.018;6.994;2023-04-05T14:46:25;13.40;;;8.30;;
4323;SDS011;2175;51.018;6.994;2023-04-05T14:48:51;9.87;;;7.70;;
4323;SDS011;2175;51.018;6.994;2023-04-05T14:51:16;13.00;;;7.60;;
4323;SDS011;2175;51.018;6.994;2023-04-05T14:53:42;11.00;;;7.63;;
4323;SDS011;2175;51.018;6.994;2023-04-05T14:56:08;12.00;;;7.97;;
4323;SDS011;2175;51.018;6.994;2023-04-05T14:58:34;18.77;;;8.80;;
4323;SDS011;2175;51.018;6.994;2023-04-05T15:01:00;12.50;;;7.47;;
4323;SDS011;2175;51.018;6.994;2023-04-05T15:03:26;13.60;;;8.10;;
4323;SDS011;2175;51.018;6.994;2023-04-05T15:05:51;9.77;;;6.97;;
4323;SDS011;2175;51.018;6.994;2023-04-05T15:08:17;13.10;;;8.17;;
4323;SDS011;2175;51.018;6.994;2023-04-05T15:10:43;15.33;;;7.87;;
4323;SDS011;2175;51.018;6.994;2023-04-05T15:13:10;17.60;;;7.77;;
4323;SDS011;2175;51.018;6.994;2023-04-05T15:15:36;12.53;;;7.50;;
4323;SDS011;2175;51.018;6.994;2023-04-05T15:18:02;13.13;;;8.17;;
4323;SDS011;2175;51.018;6.994;2023-04-05T15:20:28;10.60;;;7.63;;
4323;SDS011;2175;51.018;6.994;2023-04-05T15:22:54;12.37;;;7.90;;
4323;SDS011;2175;51.018;6.994;2023-04-05T15:25:20;11.57;;;8.03;;
4323;SDS011;2175;51.018;6.994;2023-04-05T15:27:46;12.33;;;7.80;;
4323;SDS011;2175;51.018;6.994;2023-04-05T15:30:12;10.63;;;7.00;;
4323;SDS011;2175;51.018;6.994;2023-04-05T15:32:38;13.17;;;7.73;;
4323;SDS011;2175;51.018;6.994;2023-04-05T15:35:03;9.43;;;7.40;;
4323;SDS011;2175;51.018;6.994;2023-04-05T15:37:29;9.87;;;7.17;;
4323;SDS011;2175;51.018;6.994;2023-04-05T15:39:55;12.50;;;7.70;;
4323;SDS011;2175;51.018;6.994;2023-04-05T15:42:21;10.07;;;7.10;;
4323;SDS011;2175;51.018;6.994;2023-04-05T15:44:47;10.57;;;7.33;;
4323;SDS011;2175;51.018;6.994;2023-04-05T15:47:13;8.93;;;6.30;;
4323;SDS011;2175;51.018;6.994;2023-04-05T15:49:38;9.43;;;6.93;;